createdAt,value
2023-02-17T00:01:15.547Z,72.36
2023-02-17T00:03:43.359Z,72.49
2023-02-17T00:06:11.691Z,72.63
2023-02-17T00:08:39.828Z,72.67
2023-02-17T00:11:07.836Z,72.68
2023-02-17T00:13:35.661Z,72.74
2023-02-17T00:16:08.789Z,72.62
2023-02-17T00:18:37.217Z,72.37
2023-02-17T00:21:15.650Z,72.21
2023-02-17T00:23:43.562Z,72.12
2023-02-17T00:26:11.802Z,72.05
2023-02-17T00:28:40.574Z,72.08
2023-02-17T00:31:15.832Z,72.07
2023-02-17T00:33:43.966Z,72.01
2023-02-17T00:36:13.224Z,71.83
2023-02-17T00:38:41.099Z,71.82
2023-02-17T00:41:08.866Z,71.63
2023-02-17T00:43:36.843Z,71.50
2023-02-17T00:46:05.274Z,71.33
2023-02-17T00:48:33.455Z,71.28
2023-02-17T00:51:01.253Z,71.32
2023-02-17T00:53:29.619Z,71.21
2023-02-17T00:55:57.507Z,71.23
2023-02-17T00:58:25.794Z,71.35
2023-02-17T01:00:55.894Z,71.45
2023-02-17T01:03:23.984Z,71.45
2023-02-17T01:05:54.684Z,71.37
2023-02-17T01:08:23.267Z,71.35
2023-02-17T01:10:52.728Z,71.35
2023-02-17T01:13:21.020Z,71.50
2023-02-17T01:15:50.799Z,71.44
2023-02-17T01:18:19.574Z,71.66
2023-02-17T01:20:47.569Z,71.89
2023-02-17T01:23:15.547Z,72.08
2023-02-17T01:25:45.003Z,72.39
2023-02-17T01:28:16.230Z,72.45
2023-02-17T01:30:44.011Z,72.49
2023-02-17T01:33:14.226Z,72.60
2023-02-17T01:35:42.125Z,72.67
2023-02-17T01:38:10.245Z,72.81
2023-02-17T01:40:37.970Z,72.93
2023-02-17T01:43:06.466Z,72.89
2023-02-17T01:45:36.497Z,72.66
2023-02-17T01:48:12.471Z,72.42
2023-02-17T01:50:44.167Z,72.28
2023-02-17T01:53:14.811Z,72.08
2023-02-17T01:55:43.322Z,71.92
2023-02-17T01:58:13.005Z,71.92
2023-02-17T02:00:41.626Z,71.84
2023-02-17T02:03:12.307Z,71.80
2023-02-17T02:05:41.374Z,71.68
2023-02-17T02:08:10.334Z,71.50
2023-02-17T02:10:39.109Z,71.39
2023-02-17T02:13:07.408Z,71.32
2023-02-17T02:15:40.481Z,71.23
2023-02-17T02:18:08.507Z,71.20
2023-02-17T02:20:39.055Z,71.27
2023-02-17T02:23:06.987Z,71.37
2023-02-17T02:25:43.679Z,71.46
2023-02-17T02:28:14.776Z,71.51
2023-02-17T02:30:54.029Z,71.34
2023-02-17T02:33:32.232Z,71.48
2023-02-17T02:36:05.525Z,71.40
2023-02-17T02:38:39.934Z,71.35
2023-02-17T02:41:14.199Z,71.48
2023-02-17T02:43:42.574Z,71.60
2023-02-17T02:46:10.623Z,71.71
2023-02-17T02:48:39.725Z,71.70
2023-02-17T02:51:16.727Z,71.54
2023-02-17T02:54:03.450Z,71.83
2023-02-17T02:56:31.535Z,72.12
2023-02-17T02:58:59.390Z,72.24
2023-02-17T03:01:27.592Z,72.42
2023-02-17T03:04:14.427Z,72.43
2023-02-17T03:06:42.538Z,72.29
2023-02-17T03:09:17.704Z,72.38
2023-02-17T03:11:47.640Z,72.36
2023-02-17T03:14:17.905Z,72.46
2023-02-17T03:16:46.291Z,72.71
2023-02-17T03:19:15.659Z,72.93
2023-02-17T03:21:48.663Z,72.97
2023-02-17T03:24:16.846Z,73.21
2023-02-17T03:26:44.786Z,73.57
2023-02-17T03:29:12.859Z,73.53
2023-02-17T03:31:41.239Z,73.65
2023-02-17T03:34:09.571Z,73.92
2023-02-17T03:36:37.404Z,73.89
2023-02-17T03:39:05.342Z,73.94
2023-02-17T03:41:33.425Z,74.02
2023-02-17T03:44:01.771Z,73.92
2023-02-17T03:46:29.895Z,74.02
2023-02-17T03:48:57.785Z,73.92
2023-02-17T03:51:26.468Z,73.87
2023-02-17T03:53:54.506Z,73.79
2023-02-17T03:56:22.380Z,73.81
2023-02-17T03:58:50.464Z,73.85
2023-02-17T04:01:18.498Z,73.74
2023-02-17T04:03:46.764Z,73.64
2023-02-17T04:06:14.712Z,73.67
2023-02-17T04:08:42.629Z,73.72
2023-02-17T04:11:10.619Z,73.75
2023-02-17T04:13:40.308Z,73.78
2023-02-17T04:16:09.600Z,73.76
2023-02-17T04:18:37.697Z,73.66
2023-02-17T04:21:05.784Z,73.79
2023-02-17T04:23:35.173Z,73.56
2023-02-17T04:26:04.208Z,73.35
2023-02-17T04:28:32.345Z,73.46
2023-02-17T04:31:00.313Z,73.58
2023-02-17T04:33:28.260Z,73.77
2023-02-17T04:35:59.813Z,73.87
2023-02-17T04:38:29.018Z,73.93
2023-02-17T04:40:57.497Z,73.95
2023-02-17T04:43:25.987Z,73.97
2023-02-17T04:45:54.531Z,73.94
2023-02-17T04:48:22.386Z,74.21
2023-02-17T04:50:50.122Z,74.29
2023-02-17T04:53:17.973Z,74.34
2023-02-17T04:55:48.598Z,74.55
2023-02-17T04:58:16.554Z,74.61
2023-02-17T05:00:44.351Z,74.60
2023-02-17T05:03:12.330Z,74.55
2023-02-17T05:05:40.364Z,74.57
2023-02-17T05:08:08.605Z,74.71
2023-02-17T05:10:36.759Z,74.79
2023-02-17T05:13:04.777Z,74.59
2023-02-17T05:15:34.900Z,74.61
2023-02-17T05:18:03.742Z,74.62
2023-02-17T05:20:31.681Z,74.56
2023-02-17T05:22:59.568Z,74.57
2023-02-17T05:25:27.524Z,74.50
2023-02-17T05:27:55.433Z,74.57
2023-02-17T05:30:23.332Z,74.54
2023-02-17T05:32:51.083Z,74.54
2023-02-17T05:35:19.080Z,74.61
2023-02-17T05:37:47.093Z,74.71
2023-02-17T05:40:15.001Z,74.72
2023-02-17T05:42:42.820Z,74.76
2023-02-17T05:45:10.630Z,74.95
2023-02-17T05:47:38.384Z,75.14
2023-02-17T05:50:06.643Z,75.06
2023-02-17T05:52:34.637Z,74.98
2023-02-17T05:55:03.376Z,74.99
2023-02-17T05:57:31.452Z,75.02
2023-02-17T05:59:59.733Z,75.09
2023-02-17T06:02:27.561Z,75.24
2023-02-17T06:04:56.049Z,75.31
2023-02-17T06:07:24.084Z,75.32
2023-02-17T06:09:52.219Z,75.48
2023-02-17T06:12:19.926Z,75.42
2023-02-17T06:14:47.663Z,75.50
2023-02-17T06:17:15.429Z,75.45
2023-02-17T06:19:43.771Z,75.41
2023-02-17T06:22:12.280Z,75.33
2023-02-17T06:24:40.283Z,75.24
2023-02-17T06:27:08.311Z,75.16
2023-02-17T06:29:36.142Z,74.93
2023-02-17T06:32:04.059Z,74.83
2023-02-17T06:34:31.886Z,74.80
2023-02-17T06:36:59.820Z,74.79
2023-02-17T06:39:27.628Z,74.75
2023-02-17T06:41:55.670Z,74.68
2023-02-17T06:44:23.447Z,74.74
2023-02-17T06:46:51.476Z,75.06
2023-02-17T06:49:19.453Z,75.59
2023-02-17T06:51:47.280Z,75.83
2023-02-17T06:54:15.382Z,76.65
2023-02-17T06:56:43.063Z,74.84
2023-02-17T06:59:10.954Z,74.19
2023-02-17T07:01:39.349Z,74.17
2023-02-17T07:04:07.285Z,74.17
2023-02-17T07:06:35.250Z,74.19
2023-02-17T07:09:03.498Z,74.14
2023-02-17T07:11:33.395Z,74.02
2023-02-17T07:14:01.514Z,73.96
2023-02-17T07:16:29.633Z,73.86
2023-02-17T07:18:57.593Z,73.86
2023-02-17T07:21:25.587Z,73.66
2023-02-17T07:23:53.646Z,73.60
2023-02-17T07:26:21.785Z,73.58
2023-02-17T07:28:49.817Z,73.30
2023-02-17T07:31:18.202Z,73.02
2023-02-17T07:33:48.145Z,72.98
2023-02-17T07:36:16.882Z,72.90
2023-02-17T07:38:44.861Z,72.83
2023-02-17T07:41:13.933Z,73.18
2023-02-17T07:43:41.830Z,72.85
2023-02-17T07:46:10.649Z,72.21
2023-02-17T07:48:39.273Z,72.18
2023-02-17T07:51:11.485Z,71.87
2023-02-17T07:53:40.045Z,71.76
2023-02-17T07:56:12.154Z,71.41
2023-02-17T07:58:41.623Z,71.55
2023-02-17T08:01:10.623Z,71.45
2023-02-17T08:03:38.628Z,71.36
2023-02-17T08:06:10.448Z,71.28
2023-02-17T08:08:56.865Z,71.37
2023-02-17T08:11:44.830Z,70.99
2023-02-17T08:14:14.570Z,70.93
2023-02-17T08:16:42.483Z,70.86
2023-02-17T08:19:10.381Z,70.56
2023-02-17T08:21:39.225Z,70.65
2023-02-17T08:24:08.314Z,70.43
2023-02-17T08:26:36.657Z,70.32
2023-02-17T08:29:04.667Z,70.03
2023-02-17T08:31:33.810Z,69.95
2023-02-17T08:34:02.688Z,69.44
2023-02-17T08:36:30.917Z,68.89
2023-02-17T08:38:59.054Z,68.78
2023-02-17T08:41:29.662Z,68.55
2023-02-17T08:43:58.874Z,69.16
2023-02-17T08:46:27.498Z,69.47
2023-02-17T08:48:56.451Z,68.50
2023-02-17T08:51:28.216Z,68.43
2023-02-17T08:53:57.459Z,68.48
2023-02-17T08:56:25.843Z,68.32
2023-02-17T08:58:54.205Z,68.32
2023-02-17T09:01:22.679Z,68.26
2023-02-17T09:03:52.496Z,68.33
2023-02-17T09:06:21.699Z,68.10
2023-02-17T09:08:50.386Z,67.72
2023-02-17T09:11:19.845Z,67.43
2023-02-17T09:13:47.852Z,67.22
2023-02-17T09:16:15.880Z,67.34
2023-02-17T09:18:43.720Z,67.04
2023-02-17T09:21:12.707Z,66.96
2023-02-17T09:23:41.053Z,66.64
2023-02-17T09:26:10.449Z,66.53
2023-02-17T09:28:38.835Z,66.35
2023-02-17T09:31:14.666Z,66.23
2023-02-17T09:33:43.036Z,66.45
2023-02-17T09:36:13.461Z,66.05
2023-02-17T09:38:42.019Z,66.24
2023-02-17T09:41:21.656Z,66.47
2023-02-17T09:43:50.791Z,66.59
2023-02-17T09:46:18.656Z,66.74
2023-02-17T09:48:48.287Z,66.87
2023-02-17T09:51:34.405Z,67.15
2023-02-17T09:54:05.503Z,67.28
2023-02-17T09:56:35.519Z,67.39
2023-02-17T09:59:08.675Z,67.44
2023-02-17T10:01:37.128Z,67.74
2023-02-17T10:04:05.266Z,68.87
2023-02-17T10:07:06.133Z,67.62
2023-02-17T10:09:37.971Z,67.36
2023-02-17T10:12:13.831Z,66.94
2023-02-17T10:15:00.928Z,66.67
2023-02-17T10:17:29.127Z,66.42
2023-02-17T10:20:00.988Z,66.57
2023-02-17T10:22:30.721Z,66.33
2023-02-17T10:25:00.440Z,66.19
2023-02-17T10:27:34.385Z,66.16
2023-02-17T10:30:05.604Z,66.04
2023-02-17T10:32:42.491Z,66.14
2023-02-17T10:35:17.999Z,66.28
2023-02-17T10:37:50.461Z,66.53
2023-02-17T10:40:22.659Z,66.46
2023-02-17T10:42:51.960Z,66.55
2023-02-17T10:45:25.490Z,66.66
2023-02-17T10:47:57.945Z,66.71
2023-02-17T10:50:26.585Z,67.24
2023-02-17T10:52:56.333Z,67.71
2023-02-17T10:55:24.290Z,67.78
2023-02-17T10:57:54.604Z,67.73
2023-02-17T11:00:22.829Z,67.81
2023-02-17T11:02:53.909Z,67.59
2023-02-17T11:05:24.309Z,67.49
2023-02-17T11:07:55.607Z,67.34
2023-02-17T11:10:31.444Z,67.31
2023-02-17T11:13:00.118Z,67.35
2023-02-17T11:15:43.335Z,67.49
2023-02-17T11:18:31.396Z,67.61
2023-02-17T11:21:01.844Z,67.93
2023-02-17T11:23:29.811Z,68.11
2023-02-17T11:26:02.665Z,68.40
2023-02-17T11:28:30.580Z,68.69
2023-02-17T11:30:59.769Z,68.78
2023-02-17T11:33:30.843Z,68.80
2023-02-17T11:35:59.415Z,68.89
2023-02-17T11:38:47.897Z,69.01
2023-02-17T11:41:17.615Z,69.11
2023-02-17T11:43:56.488Z,69.03
2023-02-17T11:46:24.376Z,68.61
2023-02-17T11:49:10.928Z,68.39
2023-02-17T11:51:38.641Z,68.43
2023-02-17T11:54:21.645Z,68.65
2023-02-17T11:57:12.839Z,68.80
2023-02-17T11:59:40.924Z,68.94
2023-02-17T12:02:12.095Z,69.11
2023-02-17T12:04:42.886Z,69.20
2023-02-17T12:07:27.650Z,69.13
2023-02-17T12:10:02.102Z,69.12
2023-02-17T12:13:08.558Z,68.68
2023-02-17T12:15:47.022Z,68.34
2023-02-17T12:18:20.534Z,68.16
2023-02-17T12:20:57.729Z,67.95
2023-02-17T12:23:25.512Z,67.69
2023-02-17T12:26:03.416Z,67.41
2023-02-17T12:28:34.227Z,67.15
2023-02-17T12:31:02.635Z,66.68
2023-02-17T12:33:49.275Z,66.50
2023-02-17T12:36:19.077Z,65.87
2023-02-17T12:38:54.253Z,65.56
2023-02-17T12:41:40.440Z,65.31
2023-02-17T12:44:13.386Z,64.73
2023-02-17T12:46:42.829Z,64.98
2023-02-17T12:49:10.732Z,66.78
2023-02-17T12:51:41.420Z,62.76
2023-02-17T12:54:26.777Z,62.03
2023-02-17T12:57:00.946Z,62.07
2023-02-17T12:59:34.664Z,61.59
2023-02-17T13:02:05.557Z,61.94
2023-02-17T13:04:34.346Z,61.82
2023-02-17T13:07:02.123Z,61.98
2023-02-17T13:09:35.568Z,61.97
2023-02-17T13:12:15.829Z,61.94
2023-02-17T13:14:43.661Z,62.12
2023-02-17T13:17:31.653Z,62.46
2023-02-17T13:20:05.352Z,62.72
2023-02-17T13:22:33.480Z,62.82
2023-02-17T13:25:01.374Z,63.22
2023-02-17T13:27:30.558Z,63.42
2023-02-17T13:29:59.921Z,63.01
2023-02-17T13:32:33.894Z,62.64
2023-02-17T13:35:06.015Z,62.82
2023-02-17T13:37:33.837Z,62.83
2023-02-17T13:40:03.800Z,62.55
2023-02-17T13:42:39.292Z,62.49
2023-02-17T13:45:25.913Z,62.29
2023-02-17T13:47:55.187Z,61.80
2023-02-17T13:50:25.914Z,61.39
2023-02-17T13:52:54.366Z,60.91
2023-02-17T13:55:23.917Z,60.55
2023-02-17T13:57:54.016Z,60.47
2023-02-17T14:00:24.063Z,60.23
2023-02-17T14:02:54.449Z,59.98
2023-02-17T14:05:22.381Z,60.08
2023-02-17T14:07:50.408Z,60.30
2023-02-17T14:10:26.276Z,60.29
2023-02-17T14:12:54.863Z,60.11
2023-02-17T14:15:23.978Z,60.24
2023-02-17T14:17:52.397Z,60.37
2023-02-17T14:20:34.101Z,60.59
2023-02-17T14:23:06.774Z,60.77
2023-02-17T14:25:36.465Z,61.00
2023-02-17T14:28:17.381Z,60.97
2023-02-17T14:30:45.664Z,60.92
2023-02-17T14:33:15.400Z,61.10
2023-02-17T14:35:54.278Z,61.14
2023-02-17T14:38:26.890Z,61.42
2023-02-17T14:40:56.071Z,61.40
2023-02-17T14:43:24.509Z,61.49
2023-02-17T14:45:52.361Z,61.66
2023-02-17T14:48:20.709Z,61.80
2023-02-17T14:50:48.705Z,61.81
2023-02-17T14:53:22.503Z,61.95
2023-02-17T14:55:53.490Z,61.96
2023-02-17T14:58:22.446Z,62.00
2023-02-17T15:00:50.643Z,62.25
2023-02-17T15:03:18.644Z,62.45
2023-02-17T15:05:47.043Z,62.44
2023-02-17T15:08:25.250Z,62.51
2023-02-17T15:10:53.688Z,62.52
2023-02-17T15:13:21.891Z,62.35
2023-02-17T15:15:49.762Z,62.14
2023-02-17T15:18:18.965Z,62.21
2023-02-17T15:20:50.121Z,62.31
2023-02-17T15:23:24.067Z,62.33
2023-02-17T15:25:53.775Z,62.24
2023-02-17T15:28:22.255Z,62.33
2023-02-17T15:30:54.716Z,62.44
2023-02-17T15:33:23.373Z,62.45
2023-02-17T15:35:53.684Z,62.42
2023-02-17T15:38:22.215Z,62.51
2023-02-17T15:40:50.591Z,63.20
2023-02-17T15:43:20.656Z,63.69
2023-02-17T15:45:48.798Z,62.57
2023-02-17T15:48:24.180Z,62.52
2023-02-17T15:50:52.773Z,62.42
2023-02-17T15:53:20.670Z,62.37
2023-02-17T15:55:49.029Z,62.39
2023-02-17T15:58:18.207Z,62.43
2023-02-17T16:00:46.597Z,62.48
2023-02-17T16:03:15.184Z,62.51
2023-02-17T16:05:43.247Z,62.47
2023-02-17T16:08:11.624Z,62.48
2023-02-17T16:10:42.122Z,62.30
2023-02-17T16:13:12.924Z,61.89
2023-02-17T16:15:40.744Z,61.77
2023-02-17T16:18:19.611Z,61.50
2023-02-17T16:20:47.897Z,61.60
2023-02-17T16:23:15.800Z,61.61
2023-02-17T16:25:45.165Z,61.48
2023-02-17T16:28:17.565Z,61.67
2023-02-17T16:30:46.345Z,61.73
2023-02-17T16:33:14.302Z,61.90
2023-02-17T16:35:45.104Z,62.24
2023-02-17T16:38:21.567Z,62.87
2023-02-17T16:40:52.147Z,63.66
2023-02-17T16:43:21.960Z,63.71
2023-02-17T16:45:57.454Z,63.96
2023-02-17T16:48:26.594Z,63.96
2023-02-17T16:50:54.429Z,64.02
2023-02-17T16:53:22.232Z,64.00
2023-02-17T16:55:50.942Z,63.86
2023-02-17T16:58:22.867Z,63.72
2023-02-17T17:00:52.067Z,63.85
2023-02-17T17:03:22.095Z,63.95
2023-02-17T17:05:51.280Z,63.94
2023-02-17T17:08:21.718Z,64.04
2023-02-17T17:10:50.389Z,64.05
2023-02-17T17:13:18.543Z,64.01
2023-02-17T17:15:46.973Z,63.98
2023-02-17T17:18:20.038Z,63.86
2023-02-17T17:20:48.223Z,65.88
2023-02-17T17:23:16.019Z,64.71
2023-02-17T17:25:48.586Z,64.35
2023-02-17T17:28:18.828Z,64.37
2023-02-17T17:30:46.910Z,64.41
2023-02-17T17:33:15.164Z,64.62
2023-02-17T17:35:43.377Z,64.76
2023-02-17T17:38:15.821Z,65.16
2023-02-17T17:40:53.222Z,65.54
2023-02-17T17:43:22.306Z,65.70
2023-02-17T17:45:51.075Z,65.69
2023-02-17T17:48:19.061Z,66.12
2023-02-17T17:50:48.621Z,66.29
2023-02-17T17:53:16.519Z,66.63
2023-02-17T17:55:44.508Z,66.79
2023-02-17T17:58:12.727Z,66.76
2023-02-17T18:00:40.715Z,66.72
2023-02-17T18:03:08.622Z,66.74
2023-02-17T18:05:36.914Z,66.79
2023-02-17T18:08:05.579Z,66.87
2023-02-17T18:10:33.425Z,66.97
2023-02-17T18:13:01.836Z,67.18
2023-02-17T18:15:29.642Z,67.38
2023-02-17T18:17:57.560Z,67.44
2023-02-17T18:20:25.384Z,67.31
2023-02-17T18:22:53.434Z,67.32
2023-02-17T18:25:21.400Z,67.55
2023-02-17T18:27:49.534Z,67.51
2023-02-17T18:30:19.208Z,67.39
2023-02-17T18:32:47.608Z,67.29
2023-02-17T18:35:15.394Z,67.38
2023-02-17T18:37:43.742Z,67.31
2023-02-17T18:40:12.697Z,67.24
2023-02-17T18:42:41.460Z,67.16
2023-02-17T18:45:09.926Z,67.28
2023-02-17T18:47:37.758Z,67.29
2023-02-17T18:50:06.815Z,67.30
2023-02-17T18:52:34.672Z,67.16
2023-02-17T18:55:02.659Z,67.09
2023-02-17T18:57:30.354Z,67.38
2023-02-17T18:59:58.260Z,67.28
2023-02-17T19:02:26.536Z,67.21
2023-02-17T19:04:54.744Z,67.00
2023-02-17T19:07:22.776Z,66.97
2023-02-17T19:09:53.003Z,66.86
2023-02-17T19:12:21.181Z,66.64
2023-02-17T19:14:53.135Z,66.46
2023-02-17T19:17:22.005Z,66.38
2023-02-17T19:19:50.323Z,66.44
2023-02-17T19:22:20.408Z,66.44
2023-02-17T19:24:51.064Z,66.55
2023-02-17T19:27:19.213Z,66.57
2023-02-17T19:29:47.112Z,66.70
2023-02-17T19:32:15.262Z,66.66
2023-02-17T19:34:43.156Z,66.73
2023-02-17T19:37:11.062Z,66.78
2023-02-17T19:39:39.049Z,66.77
2023-02-17T19:42:08.071Z,66.83
2023-02-17T19:44:36.596Z,66.80
2023-02-17T19:47:04.751Z,66.86
2023-02-17T19:49:32.866Z,66.88
2023-02-17T19:52:00.721Z,66.98
2023-02-17T19:54:28.536Z,66.78
2023-02-17T19:56:56.775Z,66.56
2023-02-17T19:59:24.698Z,66.35
2023-02-17T20:01:52.648Z,66.20
2023-02-17T20:04:20.652Z,66.08
2023-02-17T20:06:48.575Z,66.25
2023-02-17T20:09:18.408Z,66.27
2023-02-17T20:11:46.959Z,66.24
2023-02-17T20:14:14.818Z,66.25
2023-02-17T20:16:43.062Z,66.09
2023-02-17T20:19:10.889Z,66.20
2023-02-17T20:21:38.787Z,66.19
2023-02-17T20:24:06.829Z,66.16
2023-02-17T20:26:38.074Z,65.84
2023-02-17T20:29:06.143Z,65.72
2023-02-17T20:31:35.931Z,65.72
2023-02-17T20:34:05.319Z,65.93
2023-02-17T20:36:33.174Z,66.25
2023-02-17T20:39:00.989Z,66.37
2023-02-17T20:41:29.374Z,66.36
2023-02-17T20:44:01.497Z,66.38
2023-02-17T20:46:30.917Z,66.09
2023-02-17T20:48:58.872Z,65.90
2023-02-17T20:51:26.837Z,65.75
2023-02-17T20:53:54.637Z,65.51
2023-02-17T20:56:23.807Z,65.72
2023-02-17T20:58:52.025Z,65.64
2023-02-17T21:01:20.417Z,65.66
2023-02-17T21:03:48.337Z,65.83
2023-02-17T21:06:24.523Z,66.18
2023-02-17T21:08:54.158Z,66.43
2023-02-17T21:11:22.408Z,66.72
2023-02-17T21:13:50.383Z,66.93
2023-02-17T21:16:20.967Z,67.21
2023-02-17T21:18:49.291Z,67.48
2023-02-17T21:21:17.096Z,67.54
2023-02-17T21:23:45.585Z,67.59
2023-02-17T21:26:13.891Z,67.49
2023-02-17T21:28:42.000Z,67.25
2023-02-17T21:31:11.036Z,67.32
2023-02-17T21:33:42.094Z,67.37
2023-02-17T21:36:11.260Z,67.42
2023-02-17T21:38:39.723Z,67.24
2023-02-17T21:41:10.833Z,67.28
2023-02-17T21:43:57.800Z,67.54
2023-02-17T21:46:26.518Z,67.93
2023-02-17T21:48:55.409Z,68.19
2023-02-17T21:51:23.681Z,68.99
2023-02-17T21:53:52.746Z,69.53
2023-02-17T21:56:22.058Z,69.92
2023-02-17T21:58:51.048Z,70.35
2023-02-17T22:01:19.350Z,70.96
2023-02-17T22:03:47.181Z,71.39
2023-02-17T22:06:19.587Z,71.50
2023-02-17T22:08:47.985Z,71.89
2023-02-17T22:11:20.368Z,72.20
2023-02-17T22:13:48.592Z,72.61
2023-02-17T22:16:16.568Z,72.94
2023-02-17T22:18:44.575Z,73.37
2023-02-17T22:21:13.667Z,74.05
2023-02-17T22:23:41.696Z,74.28
2023-02-17T22:26:11.467Z,74.52
2023-02-17T22:28:40.264Z,74.69
2023-02-17T22:31:08.547Z,74.90
2023-02-17T22:33:36.481Z,74.85
2023-02-17T22:36:06.082Z,74.84
2023-02-17T22:38:34.394Z,74.98
2023-02-17T22:41:06.829Z,75.11
2023-02-17T22:43:35.199Z,75.20
2023-02-17T22:46:03.245Z,75.31
2023-02-17T22:48:32.633Z,75.44
2023-02-17T22:51:10.933Z,75.49
2023-02-17T22:53:38.990Z,75.54
2023-02-17T22:56:07.749Z,75.94
2023-02-17T22:58:36.135Z,75.96
2023-02-17T23:01:03.980Z,76.25
2023-02-17T23:03:32.362Z,76.37
2023-02-17T23:06:08.437Z,76.32
2023-02-17T23:08:36.520Z,76.28
2023-02-17T23:11:05.861Z,76.22
2023-02-17T23:13:34.191Z,76.23
2023-02-17T23:16:02.091Z,76.23
2023-02-17T23:18:31.676Z,76.22
2023-02-17T23:21:00.342Z,76.34
2023-02-17T23:23:28.224Z,76.28
2023-02-17T23:25:56.145Z,76.01
2023-02-17T23:28:24.984Z,75.83
2023-02-17T23:30:52.948Z,75.96
2023-02-17T23:33:22.294Z,75.98
2023-02-17T23:35:50.115Z,76.11
2023-02-17T23:38:20.241Z,76.38
2023-02-17T23:40:50.694Z,76.56
2023-02-17T23:43:19.303Z,76.71
2023-02-17T23:45:47.272Z,76.66
2023-02-17T23:48:15.644Z,76.77
2023-02-17T23:50:43.456Z,76.82
2023-02-17T23:53:11.686Z,76.73
2023-02-17T23:55:39.382Z,76.59
2023-02-17T23:58:07.267Z,76.78
